0VA6 weather

Mc Guire Va Medical Center Pad Heliport
Richmond, Virginia, United States

Public forecast

Using degrees Fahrenheit for public forecast. Weather courtesy of forecast.io.

METAR (pilot weather report)

Closest report is Chesterfield County Airport, 6.2 nm (11.4 km) SSW. Retrieved 2019/01/17 08:56 UTC (12 minutes ago):

KFCI 170856Z AUTO 00000KT 9SM OVC045 M03/M03 A3033 RMK AO2 SLP289 T10281033 50006 FZRANO

TAF (pilot weather forecast)

Closest forecast is Richmond International Airport, 6.8 nm (12.6 km) E. Retrieved 2019/01/17 06:22 UTC (3 hours ago):

TAF KRIC 170520Z 1706/1806 00000KT P6SM SCT050 FM171400 05004KT P6SM BKN080 FM172200 13004KT P6SM OVC060 FM180200 16004KT 6SM -RA OVC060 FM180500 17005KT 6SM -RA OVC030